sensor_id;sensor_type;location;lat;lon;timestamp;temperature;humidity
66184;DHT22;52989;48.796;9.806;2023-02-08T00:01:11;-3.00;94.30
66184;DHT22;52989;48.796;9.806;2023-02-08T00:03:37;-3.10;92.50
66184;DHT22;52989;48.796;9.806;2023-02-08T00:06:03;-3.30;93.60
66184;DHT22;52989;48.796;9.806;2023-02-08T00:08:29;-3.60;95.60
66184;DHT22;52989;48.796;9.806;2023-02-08T00:10:54;-3.70;96.20
66184;DHT22;52989;48.796;9.806;2023-02-08T00:13:20;-3.70;94.50
66184;DHT22;52989;48.796;9.806;2023-02-08T00:15:45;-3.90;95.10
66184;DHT22;52989;48.796;9.806;2023-02-08T00:18:11;-3.50;96.30
66184;DHT22;52989;48.796;9.806;2023-02-08T00:20:37;-3.60;95.80
66184;DHT22;52989;48.796;9.806;2023-02-08T00:23:02;-3.60;97.00
66184;DHT22;52989;48.796;9.806;2023-02-08T00:25:28;-3.40;94.50
66184;DHT22;52989;48.796;9.806;2023-02-08T00:27:54;-4.00;95.90
66184;DHT22;52989;48.796;9.806;2023-02-08T00:30:19;-3.80;96.50
66184;DHT22;52989;48.796;9.806;2023-02-08T00:32:45;-3.90;96.30
66184;DHT22;52989;48.796;9.806;2023-02-08T00:35:10;-3.90;96.00
66184;DHT22;52989;48.796;9.806;2023-02-08T00:37:35;-4.20;96.40
66184;DHT22;52989;48.796;9.806;2023-02-08T00:40:01;-4.00;95.70
66184;DHT22;52989;48.796;9.806;2023-02-08T00:42:27;-4.20;96.80
66184;DHT22;52989;48.796;9.806;2023-02-08T00:44:52;-3.90;97.00
66184;DHT22;52989;48.796;9.806;2023-02-08T00:47:18;-4.10;96.30
66184;DHT22;52989;48.796;9.806;2023-02-08T00:49:43;-4.10;95.80
66184;DHT22;52989;48.796;9.806;2023-02-08T00:52:09;-4.00;95.50
66184;DHT22;52989;48.796;9.806;2023-02-08T00:54:34;-3.90;94.80
66184;DHT22;52989;48.796;9.806;2023-02-08T00:56:59;-3.90;95.30
66184;DHT22;52989;48.796;9.806;2023-02-08T00:59:25;-4.00;95.50
66184;DHT22;52989;48.796;9.806;2023-02-08T01:01:51;-3.90;95.40
66184;DHT22;52989;48.796;9.806;2023-02-08T01:04:17;-3.90;94.80
66184;DHT22;52989;48.796;9.806;2023-02-08T01:06:44;-3.30;94.80
66184;DHT22;52989;48.796;9.806;2023-02-08T01:09:09;-3.30;93.90
66184;DHT22;52989;48.796;9.806;2023-02-08T01:11:35;-3.80;93.90
66184;DHT22;52989;48.796;9.806;2023-02-08T01:14:00;-3.70;94.50
66184;DHT22;52989;48.796;9.806;2023-02-08T01:16:26;-4.00;94.50
66184;DHT22;52989;48.796;9.806;2023-02-08T01:18:53;-4.10;96.30
66184;DHT22;52989;48.796;9.806;2023-02-08T01:21:19;-3.70;96.00
66184;DHT22;52989;48.796;9.806;2023-02-08T01:23:45;-3.90;95.40
66184;DHT22;52989;48.796;9.806;2023-02-08T01:26:11;-3.90;95.70
66184;DHT22;52989;48.796;9.806;2023-02-08T01:28:37;-3.70;95.10
66184;DHT22;52989;48.796;9.806;2023-02-08T01:31:06;-3.30;95.30
66184;DHT22;52989;48.796;9.806;2023-02-08T01:33:32;-3.80;94.30
66184;DHT22;52989;48.796;9.806;2023-02-08T01:35:57;-2.90;95.90
66184;DHT22;52989;48.796;9.806;2023-02-08T01:38:23;-3.50;93.60
66184;DHT22;52989;48.796;9.806;2023-02-08T01:40:48;-3.50;93.90
66184;DHT22;52989;48.796;9.806;2023-02-08T01:43:22;-3.50;93.70
66184;DHT22;52989;48.796;9.806;2023-02-08T01:45:49;-3.50;92.90
66184;DHT22;52989;48.796;9.806;2023-02-08T01:48:17;-3.50;94.80
66184;DHT22;52989;48.796;9.806;2023-02-08T01:53:24;-4.00;94.00
66184;DHT22;52989;48.796;9.806;2023-02-08T01:55:51;-4.10;94.70
66184;DHT22;52989;48.796;9.806;2023-02-08T01:58:18;-3.70;98.00
66184;DHT22;52989;48.796;9.806;2023-02-08T02:00:44;-3.70;95.10
66184;DHT22;52989;48.796;9.806;2023-02-08T02:03:10;-4.10;94.90
66184;DHT22;52989;48.796;9.806;2023-02-08T02:05:40;-3.90;96.00
66184;DHT22;52989;48.796;9.806;2023-02-08T02:08:06;-3.80;94.90
66184;DHT22;52989;48.796;9.806;2023-02-08T02:10:33;-3.90;93.60
66184;DHT22;52989;48.796;9.806;2023-02-08T02:13:01;-3.90;94.20
66184;DHT22;52989;48.796;9.806;2023-02-08T02:15:27;-3.70;93.80
66184;DHT22;52989;48.796;9.806;2023-02-08T02:17:53;-3.70;92.70
66184;DHT22;52989;48.796;9.806;2023-02-08T02:23:05;-3.70;92.90
66184;DHT22;52989;48.796;9.806;2023-02-08T02:25:41;-3.80;92.80
66184;DHT22;52989;48.796;9.806;2023-02-08T02:39:04;-4.00;93.70
66184;DHT22;52989;48.796;9.806;2023-02-08T02:41:39;-4.10;93.60
66184;DHT22;52989;48.796;9.806;2023-02-08T02:44:35;-3.60;94.40
66184;DHT22;52989;48.796;9.806;2023-02-08T02:47:08;-4.10;93.80
66184;DHT22;52989;48.796;9.806;2023-02-08T02:49:36;-4.30;94.10
66184;DHT22;52989;48.796;9.806;2023-02-08T02:52:14;-4.30;95.30
66184;DHT22;52989;48.796;9.806;2023-02-08T02:57:12;-4.30;94.30
66184;DHT22;52989;48.796;9.806;2023-02-08T02:59:39;-3.90;94.60
66184;DHT22;52989;48.796;9.806;2023-02-08T03:02:06;-4.10;94.20
66184;DHT22;52989;48.796;9.806;2023-02-08T03:17:50;-3.90;92.80
66184;DHT22;52989;48.796;9.806;2023-02-08T03:20:13;-4.10;92.60
66184;DHT22;52989;48.796;9.806;2023-02-08T03:22:44;-3.90;92.40
66184;DHT22;52989;48.796;9.806;2023-02-08T03:25:16;-3.60;92.90
66184;DHT22;52989;48.796;9.806;2023-02-08T03:32:39;-3.80;92.30
66184;DHT22;52989;48.796;9.806;2023-02-08T03:37:37;-3.90;91.90
66184;DHT22;52989;48.796;9.806;2023-02-08T03:40:10;-3.90;92.00
66184;DHT22;52989;48.796;9.806;2023-02-08T03:42:37;-3.90;92.00
66184;DHT22;52989;48.796;9.806;2023-02-08T03:45:16;-3.60;92.00
66184;DHT22;52989;48.796;9.806;2023-02-08T03:47:43;-3.80;91.80
66184;DHT22;52989;48.796;9.806;2023-02-08T03:50:10;-3.70;91.70
66184;DHT22;52989;48.796;9.806;2023-02-08T03:52:37;-3.80;90.90
66184;DHT22;52989;48.796;9.806;2023-02-08T03:55:08;-3.70;90.70
66184;DHT22;52989;48.796;9.806;2023-02-08T03:57:36;-3.80;90.70
66184;DHT22;52989;48.796;9.806;2023-02-08T04:00:06;-3.80;90.70
66184;DHT22;52989;48.796;9.806;2023-02-08T04:02:33;-3.70;90.40
66184;DHT22;52989;48.796;9.806;2023-02-08T04:05:01;-3.60;90.20
66184;DHT22;52989;48.796;9.806;2023-02-08T04:07:28;-3.70;90.30
66184;DHT22;52989;48.796;9.806;2023-02-08T04:09:53;-3.60;90.40
66184;DHT22;52989;48.796;9.806;2023-02-08T04:12:19;-3.70;90.30
66184;DHT22;52989;48.796;9.806;2023-02-08T04:14:44;-3.80;91.00
66184;DHT22;52989;48.796;9.806;2023-02-08T04:17:10;-3.80;90.80
66184;DHT22;52989;48.796;9.806;2023-02-08T04:19:35;-3.70;90.80
66184;DHT22;52989;48.796;9.806;2023-02-08T04:22:00;-3.80;90.40
66184;DHT22;52989;48.796;9.806;2023-02-08T04:24:26;-3.70;90.80
66184;DHT22;52989;48.796;9.806;2023-02-08T04:26:51;-3.90;90.70
66184;DHT22;52989;48.796;9.806;2023-02-08T04:29:17;-3.90;90.20
66184;DHT22;52989;48.796;9.806;2023-02-08T04:31:42;-3.70;89.10
66184;DHT22;52989;48.796;9.806;2023-02-08T04:34:08;-3.70;87.80
66184;DHT22;52989;48.796;9.806;2023-02-08T04:36:33;-3.70;87.10
66184;DHT22;52989;48.796;9.806;2023-02-08T04:38:59;-3.70;86.50
66184;DHT22;52989;48.796;9.806;2023-02-08T04:41:24;-3.60;86.40
66184;DHT22;52989;48.796;9.806;2023-02-08T04:43:50;-3.30;87.30
66184;DHT22;52989;48.796;9.806;2023-02-08T04:46:15;-3.50;85.20
66184;DHT22;52989;48.796;9.806;2023-02-08T04:48:41;-3.50;84.90
66184;DHT22;52989;48.796;9.806;2023-02-08T04:51:08;-3.50;84.90
66184;DHT22;52989;48.796;9.806;2023-02-08T04:53:34;-3.50;84.80
66184;DHT22;52989;48.796;9.806;2023-02-08T04:55:59;-3.50;85.10
66184;DHT22;52989;48.796;9.806;2023-02-08T04:58:25;-3.50;84.20
66184;DHT22;52989;48.796;9.806;2023-02-08T05:00:50;-3.50;84.00
66184;DHT22;52989;48.796;9.806;2023-02-08T05:03:16;-3.50;83.80
66184;DHT22;52989;48.796;9.806;2023-02-08T05:05:41;-3.50;83.60
66184;DHT22;52989;48.796;9.806;2023-02-08T05:08:07;-3.40;82.60
66184;DHT22;52989;48.796;9.806;2023-02-08T05:10:32;-3.40;83.10
66184;DHT22;52989;48.796;9.806;2023-02-08T05:12:58;-3.40;82.50
66184;DHT22;52989;48.796;9.806;2023-02-08T05:15:23;-3.40;82.10
66184;DHT22;52989;48.796;9.806;2023-02-08T05:17:48;-3.20;80.80
66184;DHT22;52989;48.796;9.806;2023-02-08T05:20:14;-3.20;81.90
66184;DHT22;52989;48.796;9.806;2023-02-08T05:22:40;-3.20;80.20
66184;DHT22;52989;48.796;9.806;2023-02-08T05:25:05;-3.20;80.70
66184;DHT22;52989;48.796;9.806;2023-02-08T05:27:32;-3.30;81.10
66184;DHT22;52989;48.796;9.806;2023-02-08T05:29:58;-3.30;81.40
66184;DHT22;52989;48.796;9.806;2023-02-08T05:32:23;-3.30;81.50
66184;DHT22;52989;48.796;9.806;2023-02-08T05:34:49;-3.20;82.00
66184;DHT22;52989;48.796;9.806;2023-02-08T05:37:16;-3.30;82.40
66184;DHT22;52989;48.796;9.806;2023-02-08T05:39:41;-3.30;81.90
66184;DHT22;52989;48.796;9.806;2023-02-08T05:42:06;-3.50;82.60
66184;DHT22;52989;48.796;9.806;2023-02-08T05:44:32;-3.50;82.50
66184;DHT22;52989;48.796;9.806;2023-02-08T05:46:57;-3.60;83.60
66184;DHT22;52989;48.796;9.806;2023-02-08T05:49:23;-3.70;83.70
66184;DHT22;52989;48.796;9.806;2023-02-08T05:51:48;-3.70;84.10
66184;DHT22;52989;48.796;9.806;2023-02-08T05:54:14;-3.60;84.80
66184;DHT22;52989;48.796;9.806;2023-02-08T05:56:40;-3.80;84.70
66184;DHT22;52989;48.796;9.806;2023-02-08T05:59:05;-3.70;84.10
66184;DHT22;52989;48.796;9.806;2023-02-08T06:01:31;-3.60;84.50
66184;DHT22;52989;48.796;9.806;2023-02-08T06:03:57;-3.70;84.70
66184;DHT22;52989;48.796;9.806;2023-02-08T06:06:23;-3.60;84.70
66184;DHT22;52989;48.796;9.806;2023-02-08T06:08:48;-3.60;83.30
66184;DHT22;52989;48.796;9.806;2023-02-08T06:11:13;-3.70;84.60
66184;DHT22;52989;48.796;9.806;2023-02-08T06:13:39;-3.50;84.10
66184;DHT22;52989;48.796;9.806;2023-02-08T06:16:05;-3.60;82.50
66184;DHT22;52989;48.796;9.806;2023-02-08T06:18:30;-3.40;84.00
66184;DHT22;52989;48.796;9.806;2023-02-08T06:20:56;-3.30;83.40
66184;DHT22;52989;48.796;9.806;2023-02-08T06:23:22;-3.20;82.70
66184;DHT22;52989;48.796;9.806;2023-02-08T06:25:47;-3.30;81.60
66184;DHT22;52989;48.796;9.806;2023-02-08T06:28:13;-3.10;82.80
66184;DHT22;52989;48.796;9.806;2023-02-08T06:30:38;-3.50;82.60
66184;DHT22;52989;48.796;9.806;2023-02-08T06:33:03;-3.60;83.10
66184;DHT22;52989;48.796;9.806;2023-02-08T06:35:29;-3.60;82.80
66184;DHT22;52989;48.796;9.806;2023-02-08T06:37:55;-3.60;82.40
66184;DHT22;52989;48.796;9.806;2023-02-08T06:40:20;-3.60;82.50
66184;DHT22;52989;48.796;9.806;2023-02-08T06:42:46;-3.40;81.90
66184;DHT22;52989;48.796;9.806;2023-02-08T06:45:12;-3.50;82.20
66184;DHT22;52989;48.796;9.806;2023-02-08T06:47:37;-3.60;82.80
66184;DHT22;52989;48.796;9.806;2023-02-08T06:50:03;-3.60;83.00
66184;DHT22;52989;48.796;9.806;2023-02-08T06:52:28;-3.60;82.80
66184;DHT22;52989;48.796;9.806;2023-02-08T06:54:54;-3.50;82.30
66184;DHT22;52989;48.796;9.806;2023-02-08T06:57:19;-3.40;82.20
66184;DHT22;52989;48.796;9.806;2023-02-08T06:59:45;-3.50;82.80
66184;DHT22;52989;48.796;9.806;2023-02-08T07:02:14;-3.50;82.50
66184;DHT22;52989;48.796;9.806;2023-02-08T07:04:40;-3.50;82.70
66184;DHT22;52989;48.796;9.806;2023-02-08T07:07:05;-3.50;83.10
66184;DHT22;52989;48.796;9.806;2023-02-08T07:09:32;-3.50;82.70
66184;DHT22;52989;48.796;9.806;2023-02-08T07:11:57;-3.60;83.30
66184;DHT22;52989;48.796;9.806;2023-02-08T07:14:23;-3.40;82.20
66184;DHT22;52989;48.796;9.806;2023-02-08T07:16:48;-3.50;82.60
66184;DHT22;52989;48.796;9.806;2023-02-08T07:19:14;-3.50;83.20
66184;DHT22;52989;48.796;9.806;2023-02-08T07:21:39;-3.40;82.70
66184;DHT22;52989;48.796;9.806;2023-02-08T07:24:05;-3.30;82.10
66184;DHT22;52989;48.796;9.806;2023-02-08T07:26:30;-3.30;81.40
66184;DHT22;52989;48.796;9.806;2023-02-08T07:28:56;-3.30;82.20
66184;DHT22;52989;48.796;9.806;2023-02-08T07:31:22;-3.20;82.40
66184;DHT22;52989;48.796;9.806;2023-02-08T07:33:47;-3.30;82.40
66184;DHT22;52989;48.796;9.806;2023-02-08T07:36:13;-3.30;82.20
66184;DHT22;52989;48.796;9.806;2023-02-08T07:38:39;-3.20;82.20
66184;DHT22;52989;48.796;9.806;2023-02-08T07:41:11;-3.30;82.70
66184;DHT22;52989;48.796;9.806;2023-02-08T07:43:37;-3.10;82.80
66184;DHT22;52989;48.796;9.806;2023-02-08T07:48:31;-3.10;81.50
66184;DHT22;52989;48.796;9.806;2023-02-08T07:50:57;-3.00;81.90
66184;DHT22;52989;48.796;9.806;2023-02-08T07:53:22;-3.10;82.70
66184;DHT22;52989;48.796;9.806;2023-02-08T07:55:48;-2.70;82.70
66184;DHT22;52989;48.796;9.806;2023-02-08T07:58:13;-2.60;81.70
66184;DHT22;52989;48.796;9.806;2023-02-08T08:00:39;-2.60;81.40
66184;DHT22;52989;48.796;9.806;2023-02-08T08:03:05;-2.50;81.70
66184;DHT22;52989;48.796;9.806;2023-02-08T08:05:30;-2.50;81.80
66184;DHT22;52989;48.796;9.806;2023-02-08T08:07:55;-2.60;81.60
66184;DHT22;52989;48.796;9.806;2023-02-08T08:10:21;-2.50;81.50
66184;DHT22;52989;48.796;9.806;2023-02-08T08:12:46;-2.50;80.90
66184;DHT22;52989;48.796;9.806;2023-02-08T08:15:12;-2.40;81.50
66184;DHT22;52989;48.796;9.806;2023-02-08T08:17:37;-2.40;80.50
66184;DHT22;52989;48.796;9.806;2023-02-08T08:20:09;-2.40;80.50
66184;DHT22;52989;48.796;9.806;2023-02-08T08:22:35;-2.30;81.20
66184;DHT22;52989;48.796;9.806;2023-02-08T08:25:00;-2.30;80.90
66184;DHT22;52989;48.796;9.806;2023-02-08T08:27:26;-2.30;80.90
66184;DHT22;52989;48.796;9.806;2023-02-08T08:29:51;-2.20;80.90
66184;DHT22;52989;48.796;9.806;2023-02-08T08:32:17;-2.10;80.00
66184;DHT22;52989;48.796;9.806;2023-02-08T08:34:42;-2.00;80.00
66184;DHT22;52989;48.796;9.806;2023-02-08T08:37:08;-2.00;80.60
66184;DHT22;52989;48.796;9.806;2023-02-08T08:39:33;-1.80;80.30
66184;DHT22;52989;48.796;9.806;2023-02-08T08:41:59;-1.70;80.00
66184;DHT22;52989;48.796;9.806;2023-02-08T08:44:25;-1.70;80.10
66184;DHT22;52989;48.796;9.806;2023-02-08T08:46:54;-1.60;80.00
66184;DHT22;52989;48.796;9.806;2023-02-08T08:49:21;-1.60;80.20
66184;DHT22;52989;48.796;9.806;2023-02-08T08:51:46;-1.50;80.40
66184;DHT22;52989;48.796;9.806;2023-02-08T08:54:12;-1.50;80.30
66184;DHT22;52989;48.796;9.806;2023-02-08T08:56:37;-1.40;80.10
66184;DHT22;52989;48.796;9.806;2023-02-08T08:59:03;-1.30;80.30
66184;DHT22;52989;48.796;9.806;2023-02-08T09:01:28;-1.10;81.10
66184;DHT22;52989;48.796;9.806;2023-02-08T09:03:54;-1.20;81.60
66184;DHT22;52989;48.796;9.806;2023-02-08T09:06:19;-1.20;80.60
66184;DHT22;52989;48.796;9.806;2023-02-08T09:08:44;-1.00;79.70
66184;DHT22;52989;48.796;9.806;2023-02-08T09:11:11;-0.80;77.60
66184;DHT22;52989;48.796;9.806;2023-02-08T09:13:37;-0.80;76.80
66184;DHT22;52989;48.796;9.806;2023-02-08T09:16:03;-0.70;74.70
66184;DHT22;52989;48.796;9.806;2023-02-08T09:18:29;-0.50;74.70
66184;DHT22;52989;48.796;9.806;2023-02-08T09:20:54;-0.50;74.30
66184;DHT22;52989;48.796;9.806;2023-02-08T09:23:20;-0.30;72.90
66184;DHT22;52989;48.796;9.806;2023-02-08T09:25:46;-0.20;73.70
66184;DHT22;52989;48.796;9.806;2023-02-08T09:28:11;-0.10;71.30
66184;DHT22;52989;48.796;9.806;2023-02-08T09:30:36;0.00;71.40
66184;DHT22;52989;48.796;9.806;2023-02-08T09:33:02;0.10;72.00
66184;DHT22;52989;48.796;9.806;2023-02-08T09:35:27;0.20;71.60
66184;DHT22;52989;48.796;9.806;2023-02-08T09:37:53;0.30;71.60
66184;DHT22;52989;48.796;9.806;2023-02-08T09:40:21;0.30;70.40
66184;DHT22;52989;48.796;9.806;2023-02-08T09:42:49;0.40;71.20
66184;DHT22;52989;48.796;9.806;2023-02-08T09:48:06;0.60;70.30
66184;DHT22;52989;48.796;9.806;2023-02-08T09:50:31;0.60;70.60
66184;DHT22;52989;48.796;9.806;2023-02-08T09:52:59;0.60;69.70
66184;DHT22;52989;48.796;9.806;2023-02-08T09:55:28;0.80;70.70
66184;DHT22;52989;48.796;9.806;2023-02-08T09:57:54;0.80;69.30
66184;DHT22;52989;48.796;9.806;2023-02-08T10:00:35;0.70;69.40
66184;DHT22;52989;48.796;9.806;2023-02-08T10:03:03;1.00;70.40
66184;DHT22;52989;48.796;9.806;2023-02-08T10:05:31;0.90;70.60
66184;DHT22;52989;48.796;9.806;2023-02-08T10:07:57;0.90;69.70
66184;DHT22;52989;48.796;9.806;2023-02-08T10:10:35;1.10;70.00
66184;DHT22;52989;48.796;9.806;2023-02-08T10:13:18;1.10;69.30
66184;DHT22;52989;48.796;9.806;2023-02-08T10:15:52;1.10;68.70
66184;DHT22;52989;48.796;9.806;2023-02-08T10:20:58;1.20;68.00
66184;DHT22;52989;48.796;9.806;2023-02-08T10:36:11;1.50;68.60
66184;DHT22;52989;48.796;9.806;2023-02-08T10:38:38;1.70;67.80
66184;DHT22;52989;48.796;9.806;2023-02-08T10:41:04;1.80;67.20
66184;DHT22;52989;48.796;9.806;2023-02-08T10:51:19;1.80;68.20
66184;DHT22;52989;48.796;9.806;2023-02-08T10:53:45;2.00;68.20
66184;DHT22;52989;48.796;9.806;2023-02-08T10:56:33;2.10;68.50
66184;DHT22;52989;48.796;9.806;2023-02-08T10:58:59;2.10;68.00
66184;DHT22;52989;48.796;9.806;2023-02-08T11:01:26;2.10;67.90
66184;DHT22;52989;48.796;9.806;2023-02-08T11:04:06;2.00;67.20
66184;DHT22;52989;48.796;9.806;2023-02-08T11:06:31;2.10;68.40
66184;DHT22;52989;48.796;9.806;2023-02-08T11:08:57;2.30;68.10
66184;DHT22;52989;48.796;9.806;2023-02-08T11:11:23;2.30;68.50
66184;DHT22;52989;48.796;9.806;2023-02-08T11:13:51;2.40;67.90
66184;DHT22;52989;48.796;9.806;2023-02-08T11:16:20;2.50;67.30
66184;DHT22;52989;48.796;9.806;2023-02-08T11:18:50;2.30;67.30
66184;DHT22;52989;48.796;9.806;2023-02-08T11:21:21;2.40;67.80
66184;DHT22;52989;48.796;9.806;2023-02-08T11:23:48;2.50;67.40
66184;DHT22;52989;48.796;9.806;2023-02-08T11:28:44;2.60;67.90
66184;DHT22;52989;48.796;9.806;2023-02-08T11:31:22;2.80;67.90
66184;DHT22;52989;48.796;9.806;2023-02-08T11:34:03;2.90;66.90
66184;DHT22;52989;48.796;9.806;2023-02-08T11:36:30;2.70;67.70
66184;DHT22;52989;48.796;9.806;2023-02-08T11:38:56;2.60;67.40
66184;DHT22;52989;48.796;9.806;2023-02-08T11:41:25;2.70;67.00
66184;DHT22;52989;48.796;9.806;2023-02-08T11:43:54;2.70;68.00
66184;DHT22;52989;48.796;9.806;2023-02-08T11:46:22;2.70;67.70
66184;DHT22;52989;48.796;9.806;2023-02-08T11:48:49;3.00;68.40
66184;DHT22;52989;48.796;9.806;2023-02-08T11:51:27;3.20;68.10
66184;DHT22;52989;48.796;9.806;2023-02-08T11:53:54;3.10;67.00
66184;DHT22;52989;48.796;9.806;2023-02-08T11:56:20;2.90;67.20
66184;DHT22;52989;48.796;9.806;2023-02-08T12:01:28;3.10;66.00
66184;DHT22;52989;48.796;9.806;2023-02-08T12:03:54;3.40;65.90
66184;DHT22;52989;48.796;9.806;2023-02-08T12:16:34;3.70;65.40
66184;DHT22;52989;48.796;9.806;2023-02-08T12:19:16;3.60;65.50
66184;DHT22;52989;48.796;9.806;2023-02-08T12:21:46;3.90;65.00
66184;DHT22;52989;48.796;9.806;2023-02-08T12:29:29;3.90;64.50
66184;DHT22;52989;48.796;9.806;2023-02-08T12:35:14;4.00;64.50
66184;DHT22;52989;48.796;9.806;2023-02-08T12:37:21;3.90;64.20
66184;DHT22;52989;48.796;9.806;2023-02-08T12:43:08;4.00;64.60
66184;DHT22;52989;48.796;9.806;2023-02-08T12:48:15;4.00;63.50
66184;DHT22;52989;48.796;9.806;2023-02-08T12:55:37;3.60;65.70
66184;DHT22;52989;48.796;9.806;2023-02-08T12:58:13;3.60;68.50
66184;DHT22;52989;48.796;9.806;2023-02-08T13:00:43;3.70;66.90
66184;DHT22;52989;48.796;9.806;2023-02-08T13:03:12;3.60;67.60
66184;DHT22;52989;48.796;9.806;2023-02-08T13:05:43;3.70;68.70
66184;DHT22;52989;48.796;9.806;2023-02-08T13:08:27;3.90;67.60
66184;DHT22;52989;48.796;9.806;2023-02-08T13:10:55;3.80;64.40
66184;DHT22;52989;48.796;9.806;2023-02-08T13:13:27;3.40;64.80
66184;DHT22;52989;48.796;9.806;2023-02-08T13:16:00;3.50;65.00
66184;DHT22;52989;48.796;9.806;2023-02-08T13:18:30;3.70;64.90
66184;DHT22;52989;48.796;9.806;2023-02-08T13:21:01;3.80;64.50
66184;DHT22;52989;48.796;9.806;2023-02-08T13:23:35;3.70;63.40
66184;DHT22;52989;48.796;9.806;2023-02-08T13:26:23;3.90;64.90
66184;DHT22;52989;48.796;9.806;2023-02-08T13:28:52;3.60;64.30
66184;DHT22;52989;48.796;9.806;2023-02-08T13:31:22;3.90;65.20
66184;DHT22;52989;48.796;9.806;2023-02-08T13:33:50;3.60;63.80
66184;DHT22;52989;48.796;9.806;2023-02-08T13:36:23;3.70;64.40
66184;DHT22;52989;48.796;9.806;2023-02-08T13:38:50;3.80;63.90
66184;DHT22;52989;48.796;9.806;2023-02-08T13:41:17;3.70;64.10
66184;DHT22;52989;48.796;9.806;2023-02-08T13:43:53;3.50;64.00
66184;DHT22;52989;48.796;9.806;2023-02-08T13:46:20;3.40;63.80
66184;DHT22;52989;48.796;9.806;2023-02-08T13:48:47;3.40;63.60
66184;DHT22;52989;48.796;9.806;2023-02-08T13:51:59;3.50;63.30
66184;DHT22;52989;48.796;9.806;2023-02-08T14:04:42;3.20;63.90
66184;DHT22;52989;48.796;9.806;2023-02-08T14:12:03;3.10;61.70
66184;DHT22;52989;48.796;9.806;2023-02-08T14:14:32;3.20;62.00
66184;DHT22;52989;48.796;9.806;2023-02-08T14:19:43;3.00;62.20
66184;DHT22;52989;48.796;9.806;2023-02-08T14:24:43;2.90;62.50
66184;DHT22;52989;48.796;9.806;2023-02-08T14:32:25;2.80;63.10
66184;DHT22;52989;48.796;9.806;2023-02-08T14:34:58;2.80;63.00
66184;DHT22;52989;48.796;9.806;2023-02-08T14:37:26;3.10;63.30
66184;DHT22;52989;48.796;9.806;2023-02-08T14:42:59;2.90;64.50
66184;DHT22;52989;48.796;9.806;2023-02-08T14:45:27;2.70;64.30
66184;DHT22;52989;48.796;9.806;2023-02-08T14:47:54;3.50;63.40
66184;DHT22;52989;48.796;9.806;2023-02-08T14:50:25;4.00;63.20
66184;DHT22;52989;48.796;9.806;2023-02-08T14:52:56;4.50;62.00
66184;DHT22;52989;48.796;9.806;2023-02-08T14:55:23;4.60;62.10
66184;DHT22;52989;48.796;9.806;2023-02-08T14:57:55;4.20;62.00
66184;DHT22;52989;48.796;9.806;2023-02-08T15:00:25;3.90;62.50
66184;DHT22;52989;48.796;9.806;2023-02-08T15:02:51;3.40;62.50
66184;DHT22;52989;48.796;9.806;2023-02-08T15:05:24;3.20;65.10
66184;DHT22;52989;48.796;9.806;2023-02-08T15:07:51;3.20;64.70
66184;DHT22;52989;48.796;9.806;2023-02-08T15:10:17;3.60;63.70
66184;DHT22;52989;48.796;9.806;2023-02-08T15:12:46;3.30;64.20
66184;DHT22;52989;48.796;9.806;2023-02-08T15:15:24;3.10;64.70
66184;DHT22;52989;48.796;9.806;2023-02-08T15:17:50;3.00;64.50
66184;DHT22;52989;48.796;9.806;2023-02-08T15:20:19;2.80;64.30
66184;DHT22;52989;48.796;9.806;2023-02-08T15:22:44;2.60;66.00
66184;DHT22;52989;48.796;9.806;2023-02-08T15:25:22;2.50;66.30
66184;DHT22;52989;48.796;9.806;2023-02-08T15:27:53;2.50;66.60
66184;DHT22;52989;48.796;9.806;2023-02-08T15:30:22;2.40;66.50
66184;DHT22;52989;48.796;9.806;2023-02-08T15:32:48;2.40;66.30
66184;DHT22;52989;48.796;9.806;2023-02-08T15:35:14;2.20;66.40
66184;DHT22;52989;48.796;9.806;2023-02-08T15:37:42;2.20;67.00
66184;DHT22;52989;48.796;9.806;2023-02-08T15:40:19;2.00;66.60
66184;DHT22;52989;48.796;9.806;2023-02-08T15:42:45;2.00;66.60
66184;DHT22;52989;48.796;9.806;2023-02-08T15:45:26;2.00;66.10
66184;DHT22;52989;48.796;9.806;2023-02-08T15:47:54;2.00;66.60
66184;DHT22;52989;48.796;9.806;2023-02-08T15:50:20;1.90;68.10
66184;DHT22;52989;48.796;9.806;2023-02-08T15:52:46;1.80;67.60
66184;DHT22;52989;48.796;9.806;2023-02-08T15:55:15;1.80;67.60
66184;DHT22;52989;48.796;9.806;2023-02-08T15:57:42;1.70;67.70
66184;DHT22;52989;48.796;9.806;2023-02-08T16:00:13;1.50;68.50
66184;DHT22;52989;48.796;9.806;2023-02-08T16:02:39;1.40;68.40
66184;DHT22;52989;48.796;9.806;2023-02-08T16:05:38;1.30;68.70
66184;DHT22;52989;48.796;9.806;2023-02-08T16:07:57;1.30;69.30
66184;DHT22;52989;48.796;9.806;2023-02-08T16:12:49;1.20;69.00
66184;DHT22;52989;48.796;9.806;2023-02-08T16:17:59;1.00;69.10
66184;DHT22;52989;48.796;9.806;2023-02-08T16:20:25;0.90;69.60
66184;DHT22;52989;48.796;9.806;2023-02-08T16:28:01;0.80;70.70
66184;DHT22;52989;48.796;9.806;2023-02-08T16:30:27;0.60;71.30
66184;DHT22;52989;48.796;9.806;2023-02-08T16:32:52;0.60;71.60
66184;DHT22;52989;48.796;9.806;2023-02-08T16:35:20;0.40;72.10
66184;DHT22;52989;48.796;9.806;2023-02-08T16:37:51;0.30;72.90
66184;DHT22;52989;48.796;9.806;2023-02-08T16:40:38;0.30;73.00
66184;DHT22;52989;48.796;9.806;2023-02-08T16:48:32;0.30;72.50
66184;DHT22;52989;48.796;9.806;2023-02-08T16:51:00;0.10;72.40
66184;DHT22;52989;48.796;9.806;2023-02-08T16:53:29;0.00;72.40
66184;DHT22;52989;48.796;9.806;2023-02-08T16:55:55;-0.10;73.30
66184;DHT22;52989;48.796;9.806;2023-02-08T16:58:21;-0.10;72.30
66184;DHT22;52989;48.796;9.806;2023-02-08T17:00:46;0.00;72.50
66184;DHT22;52989;48.796;9.806;2023-02-08T17:03:12;-0.10;73.60
66184;DHT22;52989;48.796;9.806;2023-02-08T17:05:38;-0.20;74.50
66184;DHT22;52989;48.796;9.806;2023-02-08T17:08:05;-0.30;73.90
66184;DHT22;52989;48.796;9.806;2023-02-08T17:10:32;-0.30;73.20
66184;DHT22;52989;48.796;9.806;2023-02-08T17:12:58;-0.30;73.50
66184;DHT22;52989;48.796;9.806;2023-02-08T17:15:24;-0.30;74.00
66184;DHT22;52989;48.796;9.806;2023-02-08T17:17:50;-0.40;74.10
66184;DHT22;52989;48.796;9.806;2023-02-08T17:20:17;-0.50;74.50
66184;DHT22;52989;48.796;9.806;2023-02-08T17:22:43;-0.50;74.60
66184;DHT22;52989;48.796;9.806;2023-02-08T17:25:09;-0.60;75.80
66184;DHT22;52989;48.796;9.806;2023-02-08T17:27:35;-0.60;75.40
66184;DHT22;52989;48.796;9.806;2023-02-08T17:30:00;-0.60;75.40
66184;DHT22;52989;48.796;9.806;2023-02-08T17:32:25;-0.60;75.60
66184;DHT22;52989;48.796;9.806;2023-02-08T17:34:51;-0.60;75.30
66184;DHT22;52989;48.796;9.806;2023-02-08T17:37:17;-0.60;76.10
66184;DHT22;52989;48.796;9.806;2023-02-08T17:39:43;-0.60;75.40
66184;DHT22;52989;48.796;9.806;2023-02-08T17:42:09;-0.60;76.20
66184;DHT22;52989;48.796;9.806;2023-02-08T17:44:36;-0.70;76.10
66184;DHT22;52989;48.796;9.806;2023-02-08T17:47:01;-0.70;76.10
66184;DHT22;52989;48.796;9.806;2023-02-08T17:49:27;-0.80;76.60
66184;DHT22;52989;48.796;9.806;2023-02-08T17:51:55;-0.80;76.50
66184;DHT22;52989;48.796;9.806;2023-02-08T17:54:20;-0.80;76.90
66184;DHT22;52989;48.796;9.806;2023-02-08T17:56:45;-0.80;77.20
66184;DHT22;52989;48.796;9.806;2023-02-08T17:59:11;-0.80;77.20
66184;DHT22;52989;48.796;9.806;2023-02-08T18:01:36;-0.90;77.30
66184;DHT22;52989;48.796;9.806;2023-02-08T18:04:02;-0.90;77.60
66184;DHT22;52989;48.796;9.806;2023-02-08T18:06:27;-0.90;77.70